sensor_id;sensor_type;location;lat;lon;timestamp;P1;durP1;ratioP1;P2;durP2;ratioP2
67248;SDS011;63247;54.300;18.592;2023-07-02T00:00:06;14.87;;;8.63;;
67248;SDS011;63247;54.300;18.592;2023-07-02T00:02:33;15.90;;;10.00;;
67248;SDS011;63247;54.300;18.592;2023-07-02T00:04:59;15.68;;;10.13;;
67248;SDS011;63247;54.300;18.592;2023-07-02T00:07:24;18.75;;;10.90;;
67248;SDS011;63247;54.300;18.592;2023-07-02T00:09:53;17.55;;;11.20;;
67248;SDS011;63247;54.300;18.592;2023-07-02T00:12:18;17.60;;;10.87;;
67248;SDS011;63247;54.300;18.592;2023-07-02T00:14:44;16.87;;;11.33;;
67248;SDS011;63247;54.300;18.592;2023-07-02T00:17:09;19.33;;;11.77;;
67248;SDS011;63247;54.300;18.592;2023-07-02T00:19:37;19.97;;;12.20;;
67248;SDS011;63247;54.300;18.592;2023-07-02T00:22:07;20.33;;;12.63;;
67248;SDS011;63247;54.300;18.592;2023-07-02T00:24:36;24.48;;;13.02;;
67248;SDS011;63247;54.300;18.592;2023-07-02T00:27:02;22.40;;;13.30;;
67248;SDS011;63247;54.300;18.592;2023-07-02T00:29:27;20.93;;;14.07;;
67248;SDS011;63247;54.300;18.592;2023-07-02T00:31:53;22.67;;;13.88;;
67248;SDS011;63247;54.300;18.592;2023-07-02T00:34:18;23.57;;;13.40;;
67248;SDS011;63247;54.300;18.592;2023-07-02T00:36:44;22.43;;;14.27;;
67248;SDS011;63247;54.300;18.592;2023-07-02T00:39:09;27.75;;;14.98;;
67248;SDS011;63247;54.300;18.592;2023-07-02T00:41:37;23.33;;;14.32;;
67248;SDS011;63247;54.300;18.592;2023-07-02T00:44:03;25.08;;;14.63;;
67248;SDS011;63247;54.300;18.592;2023-07-02T00:46:28;23.77;;;14.23;;
67248;SDS011;63247;54.300;18.592;2023-07-02T00:48:55;25.45;;;15.38;;
67248;SDS011;63247;54.300;18.592;2023-07-02T00:53:48;22.73;;;14.27;;
67248;SDS011;63247;54.300;18.592;2023-07-02T00:56:14;25.38;;;15.27;;
67248;SDS011;63247;54.300;18.592;2023-07-02T00:58:41;26.27;;;15.05;;
67248;SDS011;63247;54.300;18.592;2023-07-02T01:01:12;26.10;;;14.70;;
67248;SDS011;63247;54.300;18.592;2023-07-02T01:03:39;24.92;;;15.38;;
67248;SDS011;63247;54.300;18.592;2023-07-02T01:06:17;26.57;;;15.07;;
67248;SDS011;63247;54.300;18.592;2023-07-02T01:08:44;22.80;;;14.68;;
67248;SDS011;63247;54.300;18.592;2023-07-02T01:11:10;24.08;;;14.95;;
67248;SDS011;63247;54.300;18.592;2023-07-02T01:13:35;24.95;;;16.25;;
67248;SDS011;63247;54.300;18.592;2023-07-02T01:16:02;24.60;;;15.52;;
67248;SDS011;63247;54.300;18.592;2023-07-02T01:18:27;27.90;;;16.10;;
67248;SDS011;63247;54.300;18.592;2023-07-02T01:20:53;25.52;;;16.33;;
67248;SDS011;63247;54.300;18.592;2023-07-02T01:23:19;25.13;;;16.57;;
67248;SDS011;63247;54.300;18.592;2023-07-02T01:25:45;25.13;;;15.38;;
67248;SDS011;63247;54.300;18.592;2023-07-02T01:28:11;21.90;;;14.80;;
67248;SDS011;63247;54.300;18.592;2023-07-02T01:30:38;20.83;;;13.77;;
67248;SDS011;63247;54.300;18.592;2023-07-02T01:33:04;22.13;;;13.40;;
67248;SDS011;63247;54.300;18.592;2023-07-02T01:35:29;21.07;;;13.70;;
67248;SDS011;63247;54.300;18.592;2023-07-02T01:37:55;21.20;;;13.90;;
67248;SDS011;63247;54.300;18.592;2023-07-02T01:40:20;22.10;;;13.00;;
67248;SDS011;63247;54.300;18.592;2023-07-02T01:42:46;22.08;;;13.98;;
67248;SDS011;63247;54.300;18.592;2023-07-02T01:45:11;20.67;;;13.60;;
67248;SDS011;63247;54.300;18.592;2023-07-02T01:47:36;20.73;;;13.13;;
67248;SDS011;63247;54.300;18.592;2023-07-02T01:50:03;21.97;;;13.93;;
67248;SDS011;63247;54.300;18.592;2023-07-02T01:52:30;22.73;;;14.45;;
67248;SDS011;63247;54.300;18.592;2023-07-02T01:54:58;22.77;;;13.50;;
67248;SDS011;63247;54.300;18.592;2023-07-02T01:57:24;22.88;;;14.20;;
67248;SDS011;63247;54.300;18.592;2023-07-02T01:59:49;24.00;;;14.03;;
67248;SDS011;63247;54.300;18.592;2023-07-02T02:02:15;23.80;;;14.83;;
67248;SDS011;63247;54.300;18.592;2023-07-02T02:04:40;22.53;;;14.73;;
67248;SDS011;63247;54.300;18.592;2023-07-02T02:07:06;22.02;;;14.48;;
67248;SDS011;63247;54.300;18.592;2023-07-02T02:09:31;23.97;;;14.33;;
67248;SDS011;63247;54.300;18.592;2023-07-02T02:11:57;21.55;;;13.85;;
67248;SDS011;63247;54.300;18.592;2023-07-02T02:14:22;21.63;;;14.27;;
67248;SDS011;63247;54.300;18.592;2023-07-02T02:16:48;21.50;;;14.67;;
67248;SDS011;63247;54.300;18.592;2023-07-02T02:19:13;24.50;;;14.63;;
67248;SDS011;63247;54.300;18.592;2023-07-02T02:21:40;20.92;;;14.50;;
67248;SDS011;63247;54.300;18.592;2023-07-02T02:24:06;23.58;;;13.50;;
67248;SDS011;63247;54.300;18.592;2023-07-02T02:26:35;23.42;;;13.75;;
67248;SDS011;63247;54.300;18.592;2023-07-02T02:29:00;20.63;;;12.83;;
67248;SDS011;63247;54.300;18.592;2023-07-02T02:31:26;22.53;;;13.53;;
67248;SDS011;63247;54.300;18.592;2023-07-02T02:33:52;18.88;;;12.48;;
67248;SDS011;63247;54.300;18.592;2023-07-02T02:36:18;18.20;;;12.00;;
67248;SDS011;63247;54.300;18.592;2023-07-02T02:38:43;18.00;;;11.60;;
67248;SDS011;63247;54.300;18.592;2023-07-02T02:41:08;15.50;;;10.67;;
67248;SDS011;63247;54.300;18.592;2023-07-02T02:43:34;17.10;;;11.53;;
67248;SDS011;63247;54.300;18.592;2023-07-02T02:45:59;19.00;;;11.57;;
67248;SDS011;63247;54.300;18.592;2023-07-02T02:48:25;15.27;;;10.45;;
67248;SDS011;63247;54.300;18.592;2023-07-02T02:50:51;15.93;;;10.77;;
67248;SDS011;63247;54.300;18.592;2023-07-02T02:53:16;18.07;;;11.87;;
67248;SDS011;63247;54.300;18.592;2023-07-02T02:55:41;16.83;;;10.68;;
67248;SDS011;63247;54.300;18.592;2023-07-02T02:58:07;15.83;;;10.77;;
67248;SDS011;63247;54.300;18.592;2023-07-02T03:00:32;15.17;;;10.77;;
67248;SDS011;63247;54.300;18.592;2023-07-02T03:02:58;17.40;;;11.53;;
67248;SDS011;63247;54.300;18.592;2023-07-02T03:05:24;16.60;;;11.35;;
67248;SDS011;63247;54.300;18.592;2023-07-02T03:07:50;19.50;;;11.70;;
67248;SDS011;63247;54.300;18.592;2023-07-02T03:10:16;16.73;;;11.25;;
67248;SDS011;63247;54.300;18.592;2023-07-02T03:12:41;15.32;;;10.55;;
67248;SDS011;63247;54.300;18.592;2023-07-02T03:15:07;17.10;;;10.55;;
67248;SDS011;63247;54.300;18.592;2023-07-02T03:17:33;15.85;;;10.50;;
67248;SDS011;63247;54.300;18.592;2023-07-02T03:19:58;16.30;;;10.43;;
67248;SDS011;63247;54.300;18.592;2023-07-02T03:22:24;15.43;;;10.23;;
67248;SDS011;63247;54.300;18.592;2023-07-02T03:24:49;14.68;;;10.15;;
67248;SDS011;63247;54.300;18.592;2023-07-02T03:27:15;16.20;;;11.07;;
67248;SDS011;63247;54.300;18.592;2023-07-02T03:29:40;15.00;;;10.37;;
67248;SDS011;63247;54.300;18.592;2023-07-02T03:32:06;14.10;;;10.00;;
67248;SDS011;63247;54.300;18.592;2023-07-02T03:34:32;13.85;;;9.63;;
67248;SDS011;63247;54.300;18.592;2023-07-02T03:36:57;14.47;;;9.67;;
67248;SDS011;63247;54.300;18.592;2023-07-02T03:39:22;15.07;;;9.47;;
67248;SDS011;63247;54.300;18.592;2023-07-02T03:41:48;13.83;;;9.90;;
67248;SDS011;63247;54.300;18.592;2023-07-02T03:44:13;13.63;;;9.35;;
67248;SDS011;63247;54.300;18.592;2023-07-02T03:46:39;12.97;;;8.93;;
67248;SDS011;63247;54.300;18.592;2023-07-02T03:49:04;14.87;;;9.20;;
67248;SDS011;63247;54.300;18.592;2023-07-02T03:51:30;13.02;;;9.00;;
67248;SDS011;63247;54.300;18.592;2023-07-02T03:53:57;13.20;;;8.45;;
67248;SDS011;63247;54.300;18.592;2023-07-02T03:56:25;12.35;;;8.27;;
67248;SDS011;63247;54.300;18.592;2023-07-02T03:58:51;11.40;;;8.50;;
67248;SDS011;63247;54.300;18.592;2023-07-02T04:01:17;11.23;;;8.07;;
67248;SDS011;63247;54.300;18.592;2023-07-02T04:03:49;11.00;;;8.05;;
67248;SDS011;63247;54.300;18.592;2023-07-02T04:06:15;11.00;;;8.10;;
67248;SDS011;63247;54.300;18.592;2023-07-02T04:08:41;12.68;;;8.48;;
67248;SDS011;63247;54.300;18.592;2023-07-02T04:11:07;12.98;;;7.93;;
67248;SDS011;63247;54.300;18.592;2023-07-02T04:13:33;9.20;;;6.40;;
67248;SDS011;63247;54.300;18.592;2023-07-02T04:15:58;9.47;;;5.93;;
67248;SDS011;63247;54.300;18.592;2023-07-02T04:18:23;7.32;;;5.22;;
67248;SDS011;63247;54.300;18.592;2023-07-02T04:20:49;7.97;;;5.15;;
67248;SDS011;63247;54.300;18.592;2023-07-02T04:23:14;7.57;;;5.20;;
67248;SDS011;63247;54.300;18.592;2023-07-02T04:25:40;6.77;;;4.50;;
67248;SDS011;63247;54.300;18.592;2023-07-02T04:28:05;7.37;;;4.57;;
67248;SDS011;63247;54.300;18.592;2023-07-02T04:30:31;6.55;;;3.92;;
67248;SDS011;63247;54.300;18.592;2023-07-02T04:32:56;6.37;;;4.23;;
67248;SDS011;63247;54.300;18.592;2023-07-02T04:35:21;5.70;;;4.00;;
67248;SDS011;63247;54.300;18.592;2023-07-02T04:37:47;7.33;;;3.73;;
67248;SDS011;63247;54.300;18.592;2023-07-02T04:40:12;4.77;;;3.33;;
67248;SDS011;63247;54.300;18.592;2023-07-02T04:42:39;5.70;;;3.47;;
67248;SDS011;63247;54.300;18.592;2023-07-02T04:45:11;6.10;;;3.50;;
67248;SDS011;63247;54.300;18.592;2023-07-02T04:47:38;4.70;;;3.22;;
67248;SDS011;63247;54.300;18.592;2023-07-02T04:50:04;4.90;;;3.50;;
67248;SDS011;63247;54.300;18.592;2023-07-02T04:52:30;5.00;;;3.30;;
67248;SDS011;63247;54.300;18.592;2023-07-02T04:54:56;4.50;;;3.20;;
67248;SDS011;63247;54.300;18.592;2023-07-02T04:57:22;6.00;;;3.13;;
67248;SDS011;63247;54.300;18.592;2023-07-02T04:59:47;4.50;;;3.10;;
67248;SDS011;63247;54.300;18.592;2023-07-02T05:02:12;6.45;;;3.08;;
67248;SDS011;63247;54.300;18.592;2023-07-02T05:04:38;5.32;;;2.85;;
67248;SDS011;63247;54.300;18.592;2023-07-02T05:07:03;5.33;;;3.23;;
67248;SDS011;63247;54.300;18.592;2023-07-02T05:09:29;4.53;;;3.03;;
67248;SDS011;63247;54.300;18.592;2023-07-02T05:11:55;4.47;;;2.87;;
67248;SDS011;63247;54.300;18.592;2023-07-02T05:14:21;4.55;;;2.83;;
67248;SDS011;63247;54.300;18.592;2023-07-02T05:16:47;5.22;;;2.80;;
67248;SDS011;63247;54.300;18.592;2023-07-02T05:19:13;4.35;;;2.90;;
67248;SDS011;63247;54.300;18.592;2023-07-02T05:21:39;3.87;;;2.30;;
67248;SDS011;63247;54.300;18.592;2023-07-02T05:24:04;4.97;;;2.60;;
67248;SDS011;63247;54.300;18.592;2023-07-02T05:26:30;4.47;;;2.33;;
67248;SDS011;63247;54.300;18.592;2023-07-02T05:28:56;3.40;;;2.10;;
67248;SDS011;63247;54.300;18.592;2023-07-02T05:31:21;3.22;;;2.00;;
67248;SDS011;63247;54.300;18.592;2023-07-02T05:33:47;3.47;;;2.30;;
67248;SDS011;63247;54.300;18.592;2023-07-02T05:36:12;4.33;;;2.20;;
67248;SDS011;63247;54.300;18.592;2023-07-02T05:38:38;3.10;;;2.10;;
67248;SDS011;63247;54.300;18.592;2023-07-02T05:41:03;3.38;;;2.10;;
67248;SDS011;63247;54.300;18.592;2023-07-02T05:43:29;4.20;;;2.37;;
67248;SDS011;63247;54.300;18.592;2023-07-02T05:45:54;4.00;;;2.03;;
67248;SDS011;63247;54.300;18.592;2023-07-02T05:48:20;3.60;;;2.10;;
67248;SDS011;63247;54.300;18.592;2023-07-02T05:50:46;4.10;;;1.40;;
67248;SDS011;63247;54.300;18.592;2023-07-02T05:53:11;3.40;;;1.50;;
67248;SDS011;63247;54.300;18.592;2023-07-02T05:55:37;3.47;;;1.60;;
67248;SDS011;63247;54.300;18.592;2023-07-02T05:58:03;3.27;;;1.40;;
67248;SDS011;63247;54.300;18.592;2023-07-02T06:00:28;2.67;;;1.50;;
67248;SDS011;63247;54.300;18.592;2023-07-02T06:02:54;2.90;;;1.48;;
67248;SDS011;63247;54.300;18.592;2023-07-02T06:05:20;3.17;;;1.50;;
67248;SDS011;63247;54.300;18.592;2023-07-02T06:07:45;3.27;;;1.60;;
67248;SDS011;63247;54.300;18.592;2023-07-02T06:10:11;2.60;;;1.40;;
67248;SDS011;63247;54.300;18.592;2023-07-02T06:12:36;3.43;;;1.40;;
67248;SDS011;63247;54.300;18.592;2023-07-02T06:15:02;4.70;;;1.70;;
67248;SDS011;63247;54.300;18.592;2023-07-02T06:17:28;5.63;;;1.80;;
67248;SDS011;63247;54.300;18.592;2023-07-02T06:19:55;7.40;;;2.20;;
67248;SDS011;63247;54.300;18.592;2023-07-02T06:22:21;2.75;;;1.70;;
67248;SDS011;63247;54.300;18.592;2023-07-02T06:24:47;3.73;;;1.73;;
67248;SDS011;63247;54.300;18.592;2023-07-02T06:27:15;3.33;;;1.90;;
67248;SDS011;63247;54.300;18.592;2023-07-02T06:29:43;3.03;;;1.65;;
67248;SDS011;63247;54.300;18.592;2023-07-02T06:32:09;3.55;;;1.80;;
67248;SDS011;63247;54.300;18.592;2023-07-02T06:34:34;3.20;;;1.70;;
67248;SDS011;63247;54.300;18.592;2023-07-02T06:37:00;4.20;;;2.10;;
67248;SDS011;63247;54.300;18.592;2023-07-02T06:39:25;2.90;;;1.75;;
67248;SDS011;63247;54.300;18.592;2023-07-02T06:41:51;4.47;;;1.70;;
67248;SDS011;63247;54.300;18.592;2023-07-02T06:44:16;3.30;;;1.70;;
67248;SDS011;63247;54.300;18.592;2023-07-02T06:46:41;4.67;;;1.90;;
67248;SDS011;63247;54.300;18.592;2023-07-02T06:49:07;3.80;;;2.27;;
67248;SDS011;63247;54.300;18.592;2023-07-02T06:51:32;4.13;;;1.80;;
67248;SDS011;63247;54.300;18.592;2023-07-02T06:53:59;3.65;;;2.10;;
67248;SDS011;63247;54.300;18.592;2023-07-02T06:56:27;4.75;;;2.40;;
67248;SDS011;63247;54.300;18.592;2023-07-02T06:58:52;3.67;;;2.28;;
67248;SDS011;63247;54.300;18.592;2023-07-02T07:01:18;5.00;;;2.20;;
67248;SDS011;63247;54.300;18.592;2023-07-02T07:03:43;4.53;;;2.20;;
67248;SDS011;63247;54.300;18.592;2023-07-02T07:06:09;5.23;;;2.17;;
67248;SDS011;63247;54.300;18.592;2023-07-02T07:08:36;5.18;;;2.70;;
67248;SDS011;63247;54.300;18.592;2023-07-02T07:11:03;4.82;;;2.60;;
67248;SDS011;63247;54.300;18.592;2023-07-02T07:13:29;4.50;;;2.67;;
67248;SDS011;63247;54.300;18.592;2023-07-02T07:15:54;4.03;;;2.42;;
67248;SDS011;63247;54.300;18.592;2023-07-02T07:18:20;4.10;;;2.60;;
67248;SDS011;63247;54.300;18.592;2023-07-02T07:20:45;3.57;;;2.27;;
67248;SDS011;63247;54.300;18.592;2023-07-02T07:23:10;4.40;;;2.27;;
67248;SDS011;63247;54.300;18.592;2023-07-02T07:25:36;4.35;;;2.40;;
67248;SDS011;63247;54.300;18.592;2023-07-02T07:28:01;5.80;;;2.67;;
67248;SDS011;63247;54.300;18.592;2023-07-02T07:30:27;7.87;;;2.47;;
67248;SDS011;63247;54.300;18.592;2023-07-02T07:32:53;7.73;;;2.67;;
67248;SDS011;63247;54.300;18.592;2023-07-02T07:35:19;5.88;;;2.78;;
67248;SDS011;63247;54.300;18.592;2023-07-02T07:37:46;6.63;;;2.90;;
67248;SDS011;63247;54.300;18.592;2023-07-02T07:40:12;7.03;;;3.27;;
67248;SDS011;63247;54.300;18.592;2023-07-02T07:42:38;5.07;;;2.83;;
67248;SDS011;63247;54.300;18.592;2023-07-02T07:45:04;6.50;;;2.70;;
67248;SDS011;63247;54.300;18.592;2023-07-02T07:47:29;7.40;;;3.00;;
67248;SDS011;63247;54.300;18.592;2023-07-02T07:49:55;7.70;;;3.00;;
67248;SDS011;63247;54.300;18.592;2023-07-02T07:52:20;7.60;;;2.90;;
67248;SDS011;63247;54.300;18.592;2023-07-02T07:54:46;6.27;;;2.90;;
67248;SDS011;63247;54.300;18.592;2023-07-02T07:57:12;4.47;;;2.72;;
67248;SDS011;63247;54.300;18.592;2023-07-02T07:59:37;6.20;;;3.20;;
67248;SDS011;63247;54.300;18.592;2023-07-02T08:02:03;5.37;;;2.70;;
67248;SDS011;63247;54.300;18.592;2023-07-02T08:04:28;6.13;;;3.00;;
67248;SDS011;63247;54.300;18.592;2023-07-02T08:06:54;8.00;;;2.70;;
67248;SDS011;63247;54.300;18.592;2023-07-02T08:09:20;5.68;;;2.55;;
67248;SDS011;63247;54.300;18.592;2023-07-02T08:11:46;4.93;;;2.50;;
67248;SDS011;63247;54.300;18.592;2023-07-02T08:14:12;4.68;;;2.53;;
67248;SDS011;63247;54.300;18.592;2023-07-02T08:16:38;7.32;;;2.78;;
67248;SDS011;63247;54.300;18.592;2023-07-02T08:19:03;5.57;;;2.53;;
67248;SDS011;63247;54.300;18.592;2023-07-02T08:21:29;6.13;;;2.60;;
67248;SDS011;63247;54.300;18.592;2023-07-02T08:23:55;5.33;;;2.77;;
67248;SDS011;63247;54.300;18.592;2023-07-02T08:26:22;5.90;;;2.60;;
67248;SDS011;63247;54.300;18.592;2023-07-02T08:28:48;5.00;;;2.73;;
67248;SDS011;63247;54.300;18.592;2023-07-02T08:31:13;5.40;;;2.60;;
67248;SDS011;63247;54.300;18.592;2023-07-02T08:33:38;5.77;;;2.90;;
67248;SDS011;63247;54.300;18.592;2023-07-02T08:36:04;5.55;;;2.97;;
67248;SDS011;63247;54.300;18.592;2023-07-02T08:38:29;6.77;;;3.07;;
67248;SDS011;63247;54.300;18.592;2023-07-02T08:40:56;4.53;;;2.97;;
67248;SDS011;63247;54.300;18.592;2023-07-02T08:43:23;5.78;;;2.88;;
67248;SDS011;63247;54.300;18.592;2023-07-02T08:45:51;6.97;;;3.38;;
67248;SDS011;63247;54.300;18.592;2023-07-02T08:48:17;6.03;;;3.25;;
67248;SDS011;63247;54.300;18.592;2023-07-02T08:50:47;7.00;;;3.27;;
67248;SDS011;63247;54.300;18.592;2023-07-02T08:53:14;5.78;;;3.10;;
67248;SDS011;63247;54.300;18.592;2023-07-02T08:55:39;5.13;;;3.08;;
67248;SDS011;63247;54.300;18.592;2023-07-02T08:58:05;6.57;;;2.97;;
67248;SDS011;63247;54.300;18.592;2023-07-02T09:00:30;6.20;;;3.05;;
67248;SDS011;63247;54.300;18.592;2023-07-02T09:03:10;7.07;;;3.28;;
67248;SDS011;63247;54.300;18.592;2023-07-02T09:05:46;6.75;;;3.00;;
67248;SDS011;63247;54.300;18.592;2023-07-02T09:08:22;6.78;;;2.72;;
67248;SDS011;63247;54.300;18.592;2023-07-02T09:10:48;5.95;;;2.67;;
67248;SDS011;63247;54.300;18.592;2023-07-02T09:13:14;5.40;;;2.70;;
67248;SDS011;63247;54.300;18.592;2023-07-02T09:15:39;8.03;;;2.73;;
67248;SDS011;63247;54.300;18.592;2023-07-02T09:20:40;6.78;;;2.60;;
67248;SDS011;63247;54.300;18.592;2023-07-02T09:23:06;9.13;;;2.87;;
67248;SDS011;63247;54.300;18.592;2023-07-02T09:25:36;5.53;;;2.70;;
67248;SDS011;63247;54.300;18.592;2023-07-02T09:28:13;6.47;;;2.53;;
67248;SDS011;63247;54.300;18.592;2023-07-02T09:30:57;8.15;;;2.95;;
67248;SDS011;63247;54.300;18.592;2023-07-02T09:33:27;4.68;;;2.67;;
67248;SDS011;63247;54.300;18.592;2023-07-02T09:35:53;6.60;;;3.00;;
67248;SDS011;63247;54.300;18.592;2023-07-02T09:38:19;8.67;;;2.77;;
67248;SDS011;63247;54.300;18.592;2023-07-02T09:40:46;5.50;;;2.80;;
67248;SDS011;63247;54.300;18.592;2023-07-02T09:43:14;6.03;;;2.83;;
67248;SDS011;63247;54.300;18.592;2023-07-02T09:45:45;4.95;;;2.53;;
67248;SDS011;63247;54.300;18.592;2023-07-02T09:48:15;7.33;;;3.00;;
67248;SDS011;63247;54.300;18.592;2023-07-02T09:50:44;7.20;;;2.78;;
67248;SDS011;63247;54.300;18.592;2023-07-02T09:53:12;6.97;;;2.80;;
67248;SDS011;63247;54.300;18.592;2023-07-02T09:55:38;8.30;;;2.70;;
67248;SDS011;63247;54.300;18.592;2023-07-02T09:58:04;6.15;;;2.70;;
67248;SDS011;63247;54.300;18.592;2023-07-02T10:00:30;6.30;;;2.40;;
67248;SDS011;63247;54.300;18.592;2023-07-02T10:02:56;7.10;;;2.80;;
67248;SDS011;63247;54.300;18.592;2023-07-02T10:05:27;6.60;;;2.70;;
67248;SDS011;63247;54.300;18.592;2023-07-02T10:07:56;8.45;;;2.97;;
67248;SDS011;63247;54.300;18.592;2023-07-02T10:10:26;7.50;;;2.58;;
67248;SDS011;63247;54.300;18.592;2023-07-02T10:12:55;5.38;;;3.00;;
67248;SDS011;63247;54.300;18.592;2023-07-02T10:15:25;8.27;;;2.77;;
67248;SDS011;63247;54.300;18.592;2023-07-02T10:17:59;6.85;;;2.85;;
67248;SDS011;63247;54.300;18.592;2023-07-02T10:20:37;7.60;;;3.00;;
67248;SDS011;63247;54.300;18.592;2023-07-02T10:23:05;7.80;;;2.67;;
67248;SDS011;63247;54.300;18.592;2023-07-02T10:25:32;6.47;;;2.80;;
67248;SDS011;63247;54.300;18.592;2023-07-02T10:28:00;5.80;;;2.83;;
67248;SDS011;63247;54.300;18.592;2023-07-02T10:30:39;6.50;;;2.72;;
67248;SDS011;63247;54.300;18.592;2023-07-02T10:33:11;9.45;;;2.90;;
67248;SDS011;63247;54.300;18.592;2023-07-02T10:35:38;7.82;;;3.20;;
67248;SDS011;63247;54.300;18.592;2023-07-02T10:38:06;8.50;;;3.28;;
67248;SDS011;63247;54.300;18.592;2023-07-02T10:40:32;8.23;;;3.20;;
67248;SDS011;63247;54.300;18.592;2023-07-02T10:42:58;6.95;;;3.33;;
67248;SDS011;63247;54.300;18.592;2023-07-02T10:45:31;7.07;;;3.37;;
67248;SDS011;63247;54.300;18.592;2023-07-02T10:47:57;7.07;;;3.47;;
67248;SDS011;63247;54.300;18.592;2023-07-02T10:50:23;7.60;;;3.28;;
67248;SDS011;63247;54.300;18.592;2023-07-02T10:52:49;6.03;;;3.17;;
67248;SDS011;63247;54.300;18.592;2023-07-02T10:55:18;7.75;;;3.47;;
67248;SDS011;63247;54.300;18.592;2023-07-02T10:57:44;7.85;;;3.03;;
67248;SDS011;63247;54.300;18.592;2023-07-02T11:00:10;9.75;;;3.20;;
67248;SDS011;63247;54.300;18.592;2023-07-02T11:02:37;9.33;;;3.60;;
67248;SDS011;63247;54.300;18.592;2023-07-02T11:05:06;9.07;;;3.42;;
67248;SDS011;63247;54.300;18.592;2023-07-02T11:07:36;7.38;;;3.55;;
67248;SDS011;63247;54.300;18.592;2023-07-02T11:10:02;9.17;;;3.30;;
67248;SDS011;63247;54.300;18.592;2023-07-02T11:12:29;6.00;;;2.80;;
67248;SDS011;63247;54.300;18.592;2023-07-02T11:14:55;6.65;;;3.05;;
67248;SDS011;63247;54.300;18.592;2023-07-02T11:17:32;9.70;;;3.38;;
67248;SDS011;63247;54.300;18.592;2023-07-02T11:19:57;7.30;;;3.07;;
67248;SDS011;63247;54.300;18.592;2023-07-02T11:22:32;7.80;;;3.17;;
67248;SDS011;63247;54.300;18.592;2023-07-02T11:25:08;7.95;;;3.35;;
67248;SDS011;63247;54.300;18.592;2023-07-02T11:27:37;6.28;;;3.08;;
67248;SDS011;63247;54.300;18.592;2023-07-02T11:30:03;8.23;;;3.20;;
67248;SDS011;63247;54.300;18.592;2023-07-02T11:32:28;7.70;;;3.60;;
67248;SDS011;63247;54.300;18.592;2023-07-02T11:34:54;8.77;;;3.30;;
67248;SDS011;63247;54.300;18.592;2023-07-02T11:37:20;11.05;;;3.42;;
67248;SDS011;63247;54.300;18.592;2023-07-02T11:39:45;9.20;;;3.60;;
67248;SDS011;63247;54.300;18.592;2023-07-02T11:42:14;8.00;;;3.72;;
67248;SDS011;63247;54.300;18.592;2023-07-02T11:44:40;11.20;;;3.60;;
67248;SDS011;63247;54.300;18.592;2023-07-02T11:47:05;8.15;;;3.40;;
67248;SDS011;63247;54.300;18.592;2023-07-02T11:49:31;9.60;;;3.70;;
67248;SDS011;63247;54.300;18.592;2023-07-02T11:51:57;11.75;;;3.78;;
67248;SDS011;63247;54.300;18.592;2023-07-02T11:54:22;8.90;;;3.70;;
67248;SDS011;63247;54.300;18.592;2023-07-02T11:56:48;13.30;;;4.00;;
67248;SDS011;63247;54.300;18.592;2023-07-02T11:59:13;6.55;;;3.47;;
67248;SDS011;63247;54.300;18.592;2023-07-02T12:01:39;11.73;;;3.37;;
67248;SDS011;63247;54.300;18.592;2023-07-02T12:04:04;11.53;;;3.70;;
67248;SDS011;63247;54.300;18.592;2023-07-02T12:06:32;8.20;;;3.30;;
67248;SDS011;63247;54.300;18.592;2023-07-02T12:08:58;11.60;;;3.40;;
67248;SDS011;63247;54.300;18.592;2023-07-02T12:11:23;7.90;;;3.33;;
67248;SDS011;63247;54.300;18.592;2023-07-02T12:13:48;11.50;;;4.23;;
67248;SDS011;63247;54.300;18.592;2023-07-02T12:16:14;10.87;;;3.80;;
67248;SDS011;63247;54.300;18.592;2023-07-02T12:18:39;8.67;;;3.60;;
67248;SDS011;63247;54.300;18.592;2023-07-02T12:21:05;9.63;;;3.97;;
67248;SDS011;63247;54.300;18.592;2023-07-02T12:23:30;9.97;;;3.80;;
67248;SDS011;63247;54.300;18.592;2023-07-02T12:25:56;9.13;;;3.50;;
67248;SDS011;63247;54.300;18.592;2023-07-02T12:28:21;9.40;;;3.63;;
67248;SDS011;63247;54.300;18.592;2023-07-02T12:30:47;9.18;;;3.40;;
67248;SDS011;63247;54.300;18.592;2023-07-02T12:33:15;11.23;;;3.70;;
67248;SDS011;63247;54.300;18.592;2023-07-02T12:35:41;8.82;;;3.63;;
67248;SDS011;63247;54.300;18.592;2023-07-02T12:38:06;9.37;;;3.50;;
67248;SDS011;63247;54.300;18.592;2023-07-02T12:40:33;10.30;;;3.70;;
67248;SDS011;63247;54.300;18.592;2023-07-02T12:42:59;9.27;;;3.73;;
67248;SDS011;63247;54.300;18.592;2023-07-02T12:45:24;10.87;;;3.83;;
67248;SDS011;63247;54.300;18.592;2023-07-02T12:47:50;9.23;;;3.50;;
67248;SDS011;63247;54.300;18.592;2023-07-02T12:50:15;8.80;;;3.60;;
67248;SDS011;63247;54.300;18.592;2023-07-02T12:52:41;9.23;;;3.57;;
67248;SDS011;63247;54.300;18.592;2023-07-02T12:55:06;11.63;;;4.33;;
67248;SDS011;63247;54.300;18.592;2023-07-02T12:57:33;10.90;;;3.85;;
67248;SDS011;63247;54.300;18.592;2023-07-02T12:59:58;8.88;;;3.90;;
67248;SDS011;63247;54.300;18.592;2023-07-02T13:02:24;8.53;;;3.70;;
67248;SDS011;63247;54.300;18.592;2023-07-02T13:04:50;11.10;;;3.80;;
67248;SDS011;63247;54.300;18.592;2023-07-02T13:07:15;13.90;;;3.70;;
67248;SDS011;63247;54.300;18.592;2023-07-02T13:09:41;10.68;;;3.90;;
67248;SDS011;63247;54.300;18.592;2023-07-02T13:12:07;14.20;;;3.60;;
67248;SDS011;63247;54.300;18.592;2023-07-02T13:14:33;10.63;;;4.00;;
67248;SDS011;63247;54.300;18.592;2023-07-02T13:16:59;9.98;;;3.83;;
67248;SDS011;63247;54.300;18.592;2023-07-02T13:19:25;8.73;;;3.77;;
67248;SDS011;63247;54.300;18.592;2023-07-02T13:21:50;11.47;;;3.60;;
67248;SDS011;63247;54.300;18.592;2023-07-02T13:24:16;7.93;;;3.60;;
67248;SDS011;63247;54.300;18.592;2023-07-02T13:26:41;9.70;;;4.10;;
67248;SDS011;63247;54.300;18.592;2023-07-02T13:29:07;11.00;;;3.67;;
67248;SDS011;63247;54.300;18.592;2023-07-02T13:31:32;10.80;;;4.20;;
67248;SDS011;63247;54.300;18.592;2023-07-02T13:33:58;9.70;;;3.60;;
67248;SDS011;63247;54.300;18.592;2023-07-02T13:36:23;8.50;;;3.53;;
67248;SDS011;63247;54.300;18.592;2023-07-02T13:38:49;11.63;;;3.90;;
67248;SDS011;63247;54.300;18.592;2023-07-02T13:41:14;10.55;;;3.67;;
67248;SDS011;63247;54.300;18.592;2023-07-02T13:43:40;10.03;;;3.90;;
67248;SDS011;63247;54.300;18.592;2023-07-02T13:46:05;12.23;;;3.60;;
67248;SDS011;63247;54.300;18.592;2023-07-02T13:48:31;8.53;;;3.80;;
67248;SDS011;63247;54.300;18.592;2023-07-02T13:50:56;18.30;;;7.00;;
67248;SDS011;63247;54.300;18.592;2023-07-02T13:53:21;9.83;;;4.00;;
67248;SDS011;63247;54.300;18.592;2023-07-02T13:55:47;11.40;;;4.20;;
67248;SDS011;63247;54.300;18.592;2023-07-02T13:58:12;13.73;;;4.33;;
67248;SDS011;63247;54.300;18.592;2023-07-02T14:00:38;10.43;;;3.05;;
67248;SDS011;63247;54.300;18.592;2023-07-02T14:03:04;12.10;;;3.97;;
67248;SDS011;63247;54.300;18.592;2023-07-02T14:05:30;11.25;;;3.70;;
67248;SDS011;63247;54.300;18.592;2023-07-02T14:07:56;7.83;;;3.70;;
67248;SDS011;63247;54.300;18.592;2023-07-02T14:10:22;10.43;;;3.65;;
67248;SDS011;63247;54.300;18.592;2023-07-02T14:12:47;7.30;;;3.07;;
67248;SDS011;63247;54.300;18.592;2023-07-02T14:15:13;9.23;;;2.90;;
67248;SDS011;63247;54.300;18.592;2023-07-02T14:17:38;7.32;;;3.03;;
67248;SDS011;63247;54.300;18.592;2023-07-02T14:20:06;8.00;;;3.30;;
67248;SDS011;63247;54.300;18.592;2023-07-02T14:22:33;10.82;;;3.42;;
67248;SDS011;63247;54.300;18.592;2023-07-02T14:24:58;8.53;;;3.40;;